createdAt,value
2022-12-14T00:01:49.210Z,2.60
2022-12-14T00:04:17.798Z,2.42
2022-12-14T00:06:45.166Z,2.45
2022-12-14T00:09:11.898Z,2.42
2022-12-14T00:11:38.640Z,2.40
2022-12-14T00:14:05.429Z,2.25
2022-12-14T00:16:33.288Z,2.88
2022-12-14T00:19:00.672Z,2.67
2022-12-14T00:21:27.635Z,2.20
2022-12-14T00:23:54.757Z,2.38
2022-12-14T00:26:23.425Z,2.60
2022-12-14T00:28:51.390Z,2.50
2022-12-14T00:31:21.554Z,2.30
2022-12-14T00:33:48.812Z,2.22
2022-12-14T00:36:15.533Z,2.28
2022-12-14T00:38:42.500Z,2.33
2022-12-14T00:41:09.577Z,2.55
2022-12-14T00:43:36.345Z,2.55
2022-12-14T00:46:03.265Z,2.60
2022-12-14T00:48:32.115Z,2.67
2022-12-14T00:50:59.243Z,3.03
2022-12-14T00:53:26.117Z,3.10
2022-12-14T00:55:52.998Z,2.72
2022-12-14T00:58:21.380Z,3.03
2022-12-14T01:00:48.708Z,2.70
2022-12-14T01:03:15.586Z,3.38
2022-12-14T01:05:49.185Z,2.90
2022-12-14T01:08:16.251Z,3.30
2022-12-14T01:10:43.044Z,2.50
2022-12-14T01:13:11.056Z,2.47
2022-12-14T01:15:37.961Z,2.67
2022-12-14T01:18:05.328Z,2.83
2022-12-14T01:20:32.296Z,2.65
2022-12-14T01:22:59.108Z,2.47
2022-12-14T01:25:25.949Z,2.50
2022-12-14T01:27:52.883Z,2.45
2022-12-14T01:30:19.839Z,2.60
2022-12-14T01:32:47.392Z,2.20
2022-12-14T01:35:14.710Z,2.72
2022-12-14T01:37:41.558Z,2.05
2022-12-14T01:40:08.808Z,2.90
2022-12-14T01:42:36.710Z,2.33
2022-12-14T01:45:03.844Z,2.50
2022-12-14T01:47:36.523Z,2.38
2022-12-14T01:50:08.845Z,2.60
2022-12-14T01:52:41.278Z,2.10
2022-12-14T01:55:20.177Z,2.42
2022-12-14T01:58:20.053Z,2.10
2022-12-14T02:00:46.851Z,1.70
2022-12-14T02:03:18.251Z,2.50
2022-12-14T02:05:47.973Z,2.60
2022-12-14T02:08:14.917Z,2.10
2022-12-14T02:10:42.164Z,1.92
2022-12-14T02:13:22.920Z,2.38
2022-12-14T02:15:50.403Z,2.40
2022-12-14T02:18:19.522Z,2.17
2022-12-14T02:21:02.346Z,2.22
2022-12-14T02:24:01.820Z,1.90
2022-12-14T02:26:50.596Z,2.10
2022-12-14T02:29:49.414Z,2.03
2022-12-14T02:32:34.432Z,2.55
2022-12-14T02:35:19.775Z,3.13
2022-12-14T02:38:21.929Z,2.70
2022-12-14T02:41:03.514Z,1.95
2022-12-14T02:43:54.638Z,2.90
2022-12-14T02:46:29.605Z,2.50
2022-12-14T02:48:58.094Z,2.40
2022-12-14T02:51:46.029Z,2.50
2022-12-14T02:54:17.038Z,3.05
2022-12-14T02:56:47.690Z,3.00
2022-12-14T02:59:14.710Z,2.63
2022-12-14T03:01:42.017Z,2.40
2022-12-14T03:04:14.217Z,2.30
2022-12-14T03:06:54.043Z,2.35
2022-12-14T03:09:20.740Z,2.88
2022-12-14T03:12:01.391Z,2.20
2022-12-14T03:14:31.930Z,2.53
2022-12-14T03:17:03.602Z,2.10
2022-12-14T03:19:37.721Z,2.58
2022-12-14T03:22:11.108Z,2.33
2022-12-14T03:25:06.541Z,2.20
2022-12-14T03:27:35.376Z,2.15
2022-12-14T03:30:05.373Z,1.92
2022-12-14T03:32:32.199Z,1.95
2022-12-14T03:35:02.881Z,2.10
2022-12-14T03:37:38.407Z,2.35
2022-12-14T03:40:09.610Z,2.20
2022-12-14T03:42:49.394Z,2.53
2022-12-14T03:45:28.159Z,2.38
2022-12-14T03:48:00.519Z,2.65
2022-12-14T03:50:33.530Z,3.50
2022-12-14T03:53:22.958Z,2.13
2022-12-14T03:56:23.367Z,1.95
2022-12-14T03:59:32.553Z,2.42
2022-12-14T04:02:09.708Z,1.88
2022-12-14T04:04:44.236Z,2.03
2022-12-14T04:07:11.040Z,2.20
2022-12-14T04:10:02.335Z,1.88
2022-12-14T04:12:53.128Z,2.38
2022-12-14T04:15:50.873Z,1.77
2022-12-14T04:18:50.520Z,2.17
2022-12-14T04:21:39.930Z,1.90
2022-12-14T04:24:59.078Z,2.13
2022-12-14T04:27:31.634Z,1.90
2022-12-14T04:29:59.296Z,2.60
2022-12-14T04:32:28.830Z,1.65
2022-12-14T04:35:03.614Z,1.80
2022-12-14T04:37:30.416Z,1.80
2022-12-14T04:40:24.653Z,2.10
2022-12-14T04:42:54.274Z,1.88
2022-12-14T04:45:25.049Z,2.22
2022-12-14T04:48:00.150Z,2.00
2022-12-14T04:50:31.855Z,1.85
2022-12-14T04:53:02.665Z,1.88
2022-12-14T04:55:39.929Z,2.13
2022-12-14T04:58:13.049Z,2.20
2022-12-14T05:01:19.184Z,2.00
2022-12-14T05:04:03.981Z,1.83
2022-12-14T05:06:56.057Z,2.42
2022-12-14T05:09:27.292Z,2.30
2022-12-14T05:12:19.507Z,2.20
2022-12-14T05:15:10.871Z,2.10
2022-12-14T05:17:38.266Z,2.67
2022-12-14T05:20:05.853Z,1.92
2022-12-14T05:22:32.648Z,2.20
2022-12-14T05:24:59.854Z,2.38
2022-12-14T05:27:26.554Z,2.70
2022-12-14T05:29:53.268Z,3.72
2022-12-14T05:32:20.423Z,3.83
2022-12-14T05:34:47.130Z,4.25
2022-12-14T05:37:18.191Z,4.03
2022-12-14T05:39:45.222Z,4.68
2022-12-14T05:42:11.989Z,4.05
2022-12-14T05:44:39.175Z,4.53
2022-12-14T05:47:06.062Z,4.45
2022-12-14T05:49:32.874Z,4.32
2022-12-14T05:51:59.704Z,4.22
2022-12-14T05:54:27.284Z,4.22
2022-12-14T05:56:54.114Z,3.72
2022-12-14T05:59:20.901Z,4.88
2022-12-14T06:01:49.610Z,4.95
2022-12-14T06:04:18.791Z,4.75
2022-12-14T06:06:45.695Z,4.32
2022-12-14T06:09:18.075Z,4.40
2022-12-14T06:11:45.323Z,4.07
2022-12-14T06:14:12.476Z,3.78
2022-12-14T06:16:43.959Z,4.30
2022-12-14T06:19:11.636Z,4.60
2022-12-14T06:21:39.820Z,4.85
2022-12-14T06:24:07.165Z,4.38
2022-12-14T06:26:36.846Z,5.00
2022-12-14T06:29:03.975Z,5.20
2022-12-14T06:31:31.423Z,4.75
2022-12-14T06:33:59.405Z,5.13
2022-12-14T06:36:34.013Z,4.38
2022-12-14T06:39:05.355Z,5.00
2022-12-14T06:41:32.144Z,5.35
2022-12-14T06:44:05.514Z,5.05
2022-12-14T06:46:32.363Z,5.82
2022-12-14T06:48:59.149Z,6.25
2022-12-14T06:51:26.159Z,6.10
2022-12-14T06:53:54.501Z,6.93
2022-12-14T06:56:22.170Z,7.28
2022-12-14T06:58:49.358Z,7.38
2022-12-14T07:01:21.252Z,7.70
2022-12-14T07:03:50.121Z,9.32
2022-12-14T07:06:17.634Z,10.90
2022-12-14T07:08:44.395Z,9.57
2022-12-14T07:11:12.671Z,10.45
2022-12-14T07:13:39.701Z,10.90
2022-12-14T07:16:07.099Z,9.68
2022-12-14T07:18:34.093Z,9.38
2022-12-14T07:21:01.706Z,9.70
2022-12-14T07:23:30.004Z,9.75
2022-12-14T07:26:09.450Z,10.68
2022-12-14T07:28:38.892Z,10.88
2022-12-14T07:31:13.475Z,12.32
2022-12-14T07:33:40.150Z,11.43
2022-12-14T07:36:08.738Z,11.13
2022-12-14T07:38:36.401Z,10.95
2022-12-14T07:41:22.046Z,12.48
2022-12-14T07:43:50.296Z,12.35
2022-12-14T07:46:19.122Z,10.48
2022-12-14T07:48:46.709Z,12.00
2022-12-14T07:51:14.327Z,10.85
2022-12-14T07:53:41.146Z,10.02
2022-12-14T07:56:12.397Z,9.18
2022-12-14T07:58:39.221Z,10.05
2022-12-14T08:01:16.003Z,7.78
2022-12-14T08:03:56.414Z,10.40
2022-12-14T08:06:24.442Z,9.82
2022-12-14T08:08:51.707Z,11.25
2022-12-14T08:11:18.831Z,10.50
2022-12-14T08:13:46.878Z,11.63
2022-12-14T08:16:14.996Z,10.23
2022-12-14T08:18:42.322Z,9.65
2022-12-14T08:21:09.865Z,9.55
2022-12-14T08:23:36.640Z,11.45
2022-12-14T08:26:04.651Z,11.10
2022-12-14T08:28:31.614Z,9.75
2022-12-14T08:30:58.593Z,9.18
2022-12-14T08:33:25.291Z,9.40
2022-12-14T08:35:52.027Z,12.07
2022-12-14T08:38:18.699Z,12.88
2022-12-14T08:40:45.491Z,10.07
2022-12-14T08:43:12.636Z,9.23
2022-12-14T08:45:39.338Z,8.88
2022-12-14T08:48:06.194Z,9.02
2022-12-14T08:50:32.964Z,8.60
2022-12-14T08:52:59.710Z,9.70
2022-12-14T08:55:30.180Z,8.55
2022-12-14T08:57:59.746Z,9.88
2022-12-14T09:00:26.600Z,8.40
2022-12-14T09:02:54.444Z,10.02
2022-12-14T09:05:21.298Z,8.65
2022-12-14T09:07:47.950Z,8.07
2022-12-14T09:10:15.312Z,8.75
2022-12-14T09:12:41.998Z,10.00
2022-12-14T09:15:11.917Z,10.00
2022-12-14T09:17:38.553Z,8.80
2022-12-14T09:20:06.300Z,7.50
2022-12-14T09:22:33.044Z,7.90
2022-12-14T09:24:59.718Z,9.65
2022-12-14T09:27:26.420Z,7.78
2022-12-14T09:29:53.354Z,8.63
2022-12-14T09:32:20.367Z,9.10
2022-12-14T09:34:47.101Z,8.57
2022-12-14T09:37:14.384Z,9.30
2022-12-14T09:39:41.125Z,10.02
2022-12-14T09:42:36.036Z,8.35
2022-12-14T09:45:05.941Z,7.75
2022-12-14T09:47:43.106Z,7.72
2022-12-14T09:50:17.342Z,8.18
2022-12-14T09:52:54.738Z,7.85
2022-12-14T09:55:33.698Z,9.43
2022-12-14T09:58:18.608Z,10.07
2022-12-14T10:01:03.398Z,9.90
2022-12-14T10:03:42.709Z,10.90
2022-12-14T10:06:34.305Z,9.65
2022-12-14T10:09:22.236Z,8.75
2022-12-14T10:11:55.763Z,8.98
2022-12-14T10:17:10.442Z,7.22
2022-12-14T10:19:53.751Z,7.78
2022-12-14T10:22:37.821Z,6.13
2022-12-14T10:25:07.190Z,7.25
2022-12-14T10:27:53.875Z,7.20
2022-12-14T10:30:23.677Z,7.15
2022-12-14T10:32:54.219Z,8.48
2022-12-14T10:35:53.552Z,8.00
2022-12-14T10:38:41.550Z,8.48
2022-12-14T10:41:36.399Z,7.90
2022-12-14T10:44:32.308Z,9.07
2022-12-14T10:47:23.898Z,8.43
2022-12-14T10:50:01.831Z,8.63
2022-12-14T10:52:34.654Z,8.10
2022-12-14T10:55:07.137Z,9.38
2022-12-14T10:57:33.867Z,9.10
2022-12-14T11:00:09.105Z,9.65
2022-12-14T11:02:50.032Z,9.27
2022-12-14T11:05:39.227Z,9.00
2022-12-14T11:08:09.255Z,10.65
2022-12-14T11:10:37.076Z,8.93
2022-12-14T11:13:06.810Z,8.63
2022-12-14T11:15:38.926Z,8.50
2022-12-14T11:18:18.105Z,9.07
2022-12-14T11:20:57.759Z,9.23
2022-12-14T11:23:29.672Z,8.02
2022-12-14T11:26:01.031Z,9.55
2022-12-14T11:28:50.750Z,9.90
2022-12-14T11:31:20.918Z,9.70
2022-12-14T11:33:50.433Z,10.13
2022-12-14T11:36:30.995Z,10.35
2022-12-14T11:38:59.765Z,7.93
2022-12-14T11:41:32.790Z,8.00
2022-12-14T11:44:07.186Z,8.13
2022-12-14T11:46:52.916Z,8.90
2022-12-14T11:49:24.552Z,10.65
2022-12-14T11:52:12.937Z,10.00
2022-12-14T11:54:50.145Z,9.48
2022-12-14T11:57:21.822Z,10.38
2022-12-14T12:00:18.459Z,9.73
2022-12-14T12:02:50.949Z,8.73
2022-12-14T12:05:20.153Z,10.15
2022-12-14T12:07:49.913Z,8.75
2022-12-14T12:10:21.456Z,7.70
2022-12-14T12:12:52.642Z,8.95
2022-12-14T12:15:36.407Z,8.13
2022-12-14T12:18:09.141Z,7.70
2022-12-14T12:20:39.223Z,8.13
2022-12-14T12:23:16.282Z,8.45
2022-12-14T12:25:43.261Z,8.75
2022-12-14T12:28:25.686Z,8.32
2022-12-14T12:30:54.897Z,7.38
2022-12-14T12:33:35.336Z,7.75
2022-12-14T12:36:04.483Z,7.43
2022-12-14T12:38:49.744Z,8.48
2022-12-14T12:41:29.595Z,9.82
2022-12-14T12:44:19.789Z,8.57
2022-12-14T12:47:27.376Z,8.13
2022-12-14T12:50:06.613Z,9.57
2022-12-14T12:53:03.560Z,10.57
2022-12-14T12:55:42.103Z,11.43
2022-12-14T13:01:32.785Z,9.15
2022-12-14T13:04:10.479Z,8.85
2022-12-14T13:06:41.307Z,9.27
2022-12-14T13:09:36.440Z,8.52
2022-12-14T13:12:05.096Z,7.00
2022-12-14T13:14:37.663Z,8.55
2022-12-14T13:17:06.369Z,8.47
2022-12-14T13:19:54.567Z,9.50
2022-12-14T13:22:29.339Z,10.32
2022-12-14T13:24:59.803Z,9.15
2022-12-14T13:27:49.826Z,8.77
2022-12-14T13:30:19.851Z,9.55
2022-12-14T13:33:09.045Z,9.48
2022-12-14T13:35:47.596Z,9.65
2022-12-14T13:38:20.410Z,7.22
2022-12-14T13:41:09.776Z,7.43
2022-12-14T13:44:18.450Z,9.23
2022-12-14T13:46:45.656Z,9.20
2022-12-14T13:49:19.475Z,9.73
2022-12-14T13:51:50.048Z,8.68
2022-12-14T13:54:38.515Z,10.85
2022-12-14T13:57:09.851Z,10.85
2022-12-14T13:59:42.260Z,9.30
2022-12-14T14:02:28.000Z,10.68
2022-12-14T14:05:18.720Z,11.82
2022-12-14T14:07:50.601Z,10.25
2022-12-14T14:10:34.358Z,10.50
2022-12-14T14:15:34.301Z,9.25
2022-12-14T14:18:23.301Z,11.27
2022-12-14T14:21:14.654Z,11.73
2022-12-14T14:24:20.938Z,11.15
2022-12-14T14:27:11.575Z,10.50
2022-12-14T14:29:45.126Z,12.07
2022-12-14T14:32:39.053Z,11.38
2022-12-14T14:35:25.540Z,10.47
2022-12-14T14:38:00.016Z,10.65
2022-12-14T14:40:58.307Z,9.80
2022-12-14T14:43:28.596Z,9.95
2022-12-14T14:45:56.458Z,10.30
2022-12-14T14:48:40.639Z,9.82
2022-12-14T14:51:16.193Z,9.25
2022-12-14T14:53:43.496Z,9.50
2022-12-14T14:56:34.070Z,10.10
2022-12-14T14:59:19.341Z,9.25
2022-12-14T15:01:58.093Z,10.18
2022-12-14T15:04:51.523Z,10.38
2022-12-14T15:07:38.743Z,10.95
2022-12-14T15:10:31.422Z,11.15
2022-12-14T15:13:08.891Z,9.23
2022-12-14T15:16:06.518Z,8.65
2022-12-14T15:18:33.348Z,7.53
2022-12-14T15:21:02.197Z,8.40
2022-12-14T15:23:40.953Z,8.07
2022-12-14T15:26:31.781Z,8.10
2022-12-14T15:29:00.685Z,9.68
2022-12-14T15:31:59.735Z,9.70
2022-12-14T15:34:27.149Z,8.40
2022-12-14T15:36:55.001Z,8.65
2022-12-14T15:39:28.642Z,8.23
2022-12-14T15:42:03.242Z,6.95
2022-12-14T15:44:30.059Z,9.07
2022-12-14T15:46:57.220Z,9.13
2022-12-14T15:49:24.228Z,8.55
2022-12-14T15:51:51.233Z,8.90
2022-12-14T15:54:19.924Z,8.98
2022-12-14T15:56:57.595Z,8.35
2022-12-14T15:59:35.248Z,8.27
2022-12-14T16:02:30.340Z,8.38
2022-12-14T16:05:01.303Z,8.73
2022-12-14T16:07:36.664Z,7.18
2022-12-14T16:10:04.842Z,7.93
2022-12-14T16:12:46.147Z,7.57
2022-12-14T16:15:24.080Z,7.07
2022-12-14T16:17:55.999Z,9.07
2022-12-14T16:20:30.275Z,7.60
2022-12-14T16:23:02.017Z,7.63
2022-12-14T16:25:30.313Z,6.47
2022-12-14T16:27:57.092Z,6.93
2022-12-14T16:30:32.644Z,5.13
2022-12-14T16:33:17.969Z,5.13
2022-12-14T16:35:46.292Z,4.93
2022-12-14T16:38:17.433Z,5.60
2022-12-14T16:40:53.795Z,6.70
2022-12-14T16:43:53.173Z,7.53
2022-12-14T16:46:20.092Z,7.03
2022-12-14T16:49:07.669Z,7.85
2022-12-14T16:52:05.880Z,7.10
2022-12-14T16:54:33.553Z,6.07
2022-12-14T16:57:03.353Z,5.35
2022-12-14T16:59:55.978Z,6.03
2022-12-14T17:02:31.627Z,6.50
2022-12-14T17:05:04.350Z,6.55
2022-12-14T17:07:31.592Z,7.55
2022-12-14T17:09:58.465Z,8.13
2022-12-14T17:12:25.717Z,9.18
2022-12-14T17:14:52.477Z,10.00
2022-12-14T17:17:23.558Z,10.30
2022-12-14T17:19:51.370Z,10.25
2022-12-14T17:22:23.162Z,8.68
2022-12-14T17:24:50.315Z,9.90
2022-12-14T17:27:17.577Z,8.00
2022-12-14T17:29:44.353Z,8.30
2022-12-14T17:32:11.957Z,9.88
2022-12-14T17:34:38.806Z,8.70
2022-12-14T17:37:18.246Z,7.80
2022-12-14T17:39:45.179Z,8.45
2022-12-14T17:42:13.248Z,8.30
2022-12-14T17:44:41.475Z,7.82
2022-12-14T17:47:11.457Z,6.82
2022-12-14T17:49:39.230Z,8.13
2022-12-14T17:52:07.259Z,7.10
2022-12-14T17:54:36.745Z,6.43
2022-12-14T17:57:05.621Z,8.27
2022-12-14T17:59:32.860Z,8.00
2022-12-14T18:01:59.974Z,7.18
2022-12-14T18:04:26.807Z,8.68
2022-12-14T18:06:53.506Z,8.60
2022-12-14T18:09:20.291Z,6.47
2022-12-14T18:12:14.333Z,6.68
2022-12-14T18:14:33.819Z,7.93
2022-12-14T18:17:00.967Z,10.52
2022-12-14T18:19:29.958Z,8.38
2022-12-14T18:21:57.141Z,8.25
2022-12-14T18:24:26.136Z,8.25
2022-12-14T18:26:53.088Z,7.68
2022-12-14T18:29:20.231Z,7.43
2022-12-14T18:31:49.672Z,7.43
2022-12-14T18:34:16.729Z,7.78
2022-12-14T18:36:43.525Z,7.20
2022-12-14T18:39:10.414Z,7.32
2022-12-14T18:41:37.769Z,8.02
2022-12-14T18:44:05.296Z,7.45
2022-12-14T18:46:36.046Z,7.70
2022-12-14T18:49:03.340Z,7.30
2022-12-14T18:51:30.113Z,6.80
2022-12-14T18:53:57.990Z,7.30
2022-12-14T18:56:26.073Z,7.43
2022-12-14T18:58:52.933Z,6.68
2022-12-14T19:01:21.729Z,6.07
2022-12-14T19:03:49.010Z,6.85
2022-12-14T19:09:11.281Z,6.43
2022-12-14T19:11:40.260Z,6.22
2022-12-14T19:14:08.469Z,5.80
2022-12-14T19:16:35.242Z,5.70
2022-12-14T19:19:01.989Z,5.13
2022-12-14T19:21:29.788Z,6.93
2022-12-14T19:24:00.038Z,5.50
2022-12-14T19:26:31.586Z,5.10
2022-12-14T19:28:58.779Z,5.55
2022-12-14T19:31:27.452Z,5.68
2022-12-14T19:33:54.396Z,5.10
2022-12-14T19:36:21.265Z,5.07
2022-12-14T19:38:49.538Z,4.28
2022-12-14T19:41:17.860Z,4.10
2022-12-14T19:43:44.647Z,4.10
2022-12-14T19:46:12.252Z,5.00
2022-12-14T19:48:39.258Z,4.05
2022-12-14T19:51:12.619Z,4.35
2022-12-14T19:53:40.299Z,3.33
2022-12-14T19:56:08.927Z,3.15
2022-12-14T19:58:35.777Z,2.72
2022-12-14T20:01:07.012Z,3.05
2022-12-14T20:03:34.767Z,2.30
2022-12-14T20:06:02.885Z,2.70
2022-12-14T20:08:30.243Z,1.90
2022-12-14T20:10:57.790Z,1.60
2022-12-14T20:13:25.577Z,2.30
2022-12-14T20:15:53.971Z,1.77
2022-12-14T20:18:21.449Z,1.67
2022-12-14T20:20:49.824Z,1.70
2022-12-14T20:23:17.963Z,1.70
2022-12-14T20:25:44.925Z,1.52
2022-12-14T20:28:11.694Z,1.35
2022-12-14T20:30:45.966Z,1.27
2022-12-14T20:33:13.143Z,1.40
2022-12-14T20:35:40.152Z,1.10
2022-12-14T20:38:06.932Z,1.50
2022-12-14T20:40:38.551Z,1.50
2022-12-14T20:43:06.835Z,1.38
2022-12-14T20:45:40.525Z,1.77
2022-12-14T20:48:07.549Z,1.30
2022-12-14T20:50:35.792Z,1.40
2022-12-14T20:53:04.209Z,1.38
2022-12-14T20:55:30.986Z,1.30
2022-12-14T20:57:57.870Z,2.10
2022-12-14T21:00:25.193Z,2.10
2022-12-14T21:02:52.188Z,1.50
2022-12-14T21:05:19.037Z,1.85
2022-12-14T21:07:45.799Z,1.60
2022-12-14T21:10:12.521Z,1.48
2022-12-14T21:12:39.184Z,1.80
2022-12-14T21:15:06.345Z,1.88
2022-12-14T21:17:33.694Z,1.55
2022-12-14T21:20:00.406Z,1.67
2022-12-14T21:22:27.948Z,1.25
2022-12-14T21:25:04.234Z,1.13
2022-12-14T21:27:32.669Z,1.25
2022-12-14T21:30:00.522Z,1.38
2022-12-14T21:32:27.531Z,0.82
2022-12-14T21:34:54.234Z,0.90
2022-12-14T21:37:21.091Z,0.90
2022-12-14T21:39:54.102Z,1.50
2022-12-14T21:42:23.292Z,1.50
2022-12-14T21:44:51.053Z,1.63
2022-12-14T21:47:19.876Z,1.33
2022-12-14T21:49:46.576Z,1.35
2022-12-14T21:52:15.052Z,1.27
2022-12-14T21:54:41.965Z,1.20
2022-12-14T21:57:31.578Z,1.58
2022-12-14T21:59:58.352Z,1.25
2022-12-14T22:02:25.458Z,1.77
2022-12-14T22:04:56.206Z,1.50
2022-12-14T22:07:30.336Z,1.30
2022-12-14T22:09:57.046Z,1.00
2022-12-14T22:12:23.730Z,0.95
2022-12-14T22:14:50.612Z,0.80
2022-12-14T22:17:17.380Z,1.00
2022-12-14T22:19:44.090Z,1.00
2022-12-14T22:22:14.985Z,1.65
2022-12-14T22:24:41.895Z,1.27
2022-12-14T22:27:12.663Z,1.65
2022-12-14T22:29:39.514Z,1.48
2022-12-14T22:32:07.013Z,1.20
2022-12-14T22:34:33.849Z,1.70
2022-12-14T22:37:00.582Z,1.85
2022-12-14T22:39:27.279Z,1.33
2022-12-14T22:41:54.083Z,2.05
2022-12-14T22:44:20.843Z,1.58
2022-12-14T22:46:47.487Z,1.80
2022-12-14T22:49:17.429Z,1.20
2022-12-14T22:51:44.170Z,1.27
2022-12-14T22:54:17.599Z,1.30
2022-12-14T22:56:46.464Z,1.30
2022-12-14T22:59:18.706Z,1.17
2022-12-14T23:01:49.984Z,1.02
2022-12-14T23:04:17.527Z,1.40
2022-12-14T23:06:44.433Z,0.90
2022-12-14T23:09:29.690Z,1.20
2022-12-14T23:12:18.362Z,1.00
2022-12-14T23:15:06.358Z,0.80
2022-12-14T23:17:51.609Z,0.93
2022-12-14T23:20:36.691Z,0.98
2022-12-14T23:23:24.864Z,1.05
2022-12-14T23:26:10.041Z,0.98
2022-12-14T23:28:55.195Z,0.80
2022-12-14T23:31:40.358Z,0.80
2022-12-14T23:34:25.479Z,1.02
2022-12-14T23:37:13.865Z,1.35
2022-12-14T23:40:03.113Z,0.80
2022-12-14T23:42:48.248Z,0.70
2022-12-14T23:45:33.174Z,0.90
2022-12-14T23:48:18.334Z,0.73
2022-12-14T23:51:03.580Z,1.02
2022-12-14T23:53:49.831Z,1.00
2022-12-14T23:56:36.056Z,1.20
2022-12-14T23:59:24.917Z,0.90
